sensor_id;sensor_type;location;lat;lon;timestamp;P1;durP1;ratioP1;P2;durP2;ratioP2
61135;SDS011;47021;51.340;12.432;2022-08-25T00:05:23;14.75;;;9.10;;
61135;SDS011;47021;51.340;12.432;2022-08-25T00:07:51;11.45;;;8.65;;
61135;SDS011;47021;51.340;12.432;2022-08-25T00:10:22;15.73;;;10.35;;
61135;SDS011;47021;51.340;12.432;2022-08-25T00:15:39;18.60;;;9.52;;
61135;SDS011;47021;51.340;12.432;2022-08-25T00:18:05;14.43;;;9.63;;
61135;SDS011;47021;51.340;12.432;2022-08-25T00:20:39;20.10;;;9.50;;
61135;SDS011;47021;51.340;12.432;2022-08-25T00:23:06;12.57;;;9.80;;
61135;SDS011;47021;51.340;12.432;2022-08-25T00:25:37;16.60;;;12.23;;
61135;SDS011;47021;51.340;12.432;2022-08-25T00:28:05;14.40;;;11.85;;
61135;SDS011;47021;51.340;12.432;2022-08-25T00:30:42;18.70;;;10.45;;
61135;SDS011;47021;51.340;12.432;2022-08-25T00:36:04;17.58;;;12.70;;
61135;SDS011;47021;51.340;12.432;2022-08-25T00:38:37;17.20;;;11.60;;
61135;SDS011;47021;51.340;12.432;2022-08-25T00:41:04;15.52;;;11.68;;
61135;SDS011;47021;51.340;12.432;2022-08-25T00:46:35;19.63;;;12.05;;
61135;SDS011;47021;51.340;12.432;2022-08-25T00:49:08;18.85;;;10.85;;
61135;SDS011;47021;51.340;12.432;2022-08-25T00:51:59;13.85;;;10.00;;
61135;SDS011;47021;51.340;12.432;2022-08-25T00:54:38;15.52;;;10.25;;
61135;SDS011;47021;51.340;12.432;2022-08-25T00:57:16;16.00;;;9.80;;
61135;SDS011;47021;51.340;12.432;2022-08-25T00:59:44;13.27;;;9.85;;
61135;SDS011;47021;51.340;12.432;2022-08-25T01:02:10;18.73;;;10.52;;
61135;SDS011;47021;51.340;12.432;2022-08-25T01:04:44;16.27;;;9.77;;
61135;SDS011;47021;51.340;12.432;2022-08-25T01:07:24;24.35;;;9.77;;
61135;SDS011;47021;51.340;12.432;2022-08-25T01:09:49;18.73;;;10.23;;
61135;SDS011;47021;51.340;12.432;2022-08-25T01:12:17;20.50;;;12.30;;
61135;SDS011;47021;51.340;12.432;2022-08-25T01:14:45;20.13;;;12.95;;
61135;SDS011;47021;51.340;12.432;2022-08-25T01:17:12;18.80;;;12.40;;
61135;SDS011;47021;51.340;12.432;2022-08-25T01:19:38;19.10;;;12.35;;
61135;SDS011;47021;51.340;12.432;2022-08-25T01:22:04;20.50;;;12.68;;
61135;SDS011;47021;51.340;12.432;2022-08-25T01:27:05;19.00;;;12.85;;
61135;SDS011;47021;51.340;12.432;2022-08-25T01:29:36;15.63;;;12.93;;
61135;SDS011;47021;51.340;12.432;2022-08-25T01:32:09;25.77;;;13.45;;
61135;SDS011;47021;51.340;12.432;2022-08-25T01:34:37;22.13;;;14.00;;
61135;SDS011;47021;51.340;12.432;2022-08-25T01:37:09;20.60;;;13.60;;
61135;SDS011;47021;51.340;12.432;2022-08-25T01:39:35;18.48;;;14.63;;
61135;SDS011;47021;51.340;12.432;2022-08-25T01:45:04;21.60;;;13.45;;
61135;SDS011;47021;51.340;12.432;2022-08-25T01:47:30;18.70;;;14.75;;
61135;SDS011;47021;51.340;12.432;2022-08-25T01:49:56;17.75;;;13.55;;
61135;SDS011;47021;51.340;12.432;2022-08-25T01:55:31;23.05;;;13.68;;
61135;SDS011;47021;51.340;12.432;2022-08-25T01:57:57;18.95;;;13.55;;
61135;SDS011;47021;51.340;12.432;2022-08-25T02:00:35;24.05;;;12.98;;
61135;SDS011;47021;51.340;12.432;2022-08-25T02:03:02;19.60;;;12.98;;
61135;SDS011;47021;51.340;12.432;2022-08-25T02:05:34;21.80;;;13.35;;
61135;SDS011;47021;51.340;12.432;2022-08-25T02:10:30;16.38;;;12.07;;
61135;SDS011;47021;51.340;12.432;2022-08-25T02:12:56;20.13;;;14.07;;
61135;SDS011;47021;51.340;12.432;2022-08-25T02:15:21;18.50;;;13.33;;
61135;SDS011;47021;51.340;12.432;2022-08-25T02:17:49;16.67;;;12.10;;
61135;SDS011;47021;51.340;12.432;2022-08-25T02:20:15;16.27;;;11.75;;
61135;SDS011;47021;51.340;12.432;2022-08-25T02:22:47;15.98;;;11.70;;
61135;SDS011;47021;51.340;12.432;2022-08-25T02:28:07;15.73;;;11.63;;
61135;SDS011;47021;51.340;12.432;2022-08-25T02:30:34;15.07;;;11.43;;
61135;SDS011;47021;51.340;12.432;2022-08-25T02:33:06;15.57;;;12.40;;
61135;SDS011;47021;51.340;12.432;2022-08-25T02:38:29;27.50;;;14.13;;
61135;SDS011;47021;51.340;12.432;2022-08-25T02:43:52;17.95;;;14.50;;
61135;SDS011;47021;51.340;12.432;2022-08-25T02:46:18;23.70;;;14.70;;
61135;SDS011;47021;51.340;12.432;2022-08-25T02:48:57;22.95;;;15.93;;
61135;SDS011;47021;51.340;12.432;2022-08-25T02:51:25;20.67;;;14.85;;
61135;SDS011;47021;51.340;12.432;2022-08-25T02:53:52;18.33;;;14.45;;
61135;SDS011;47021;51.340;12.432;2022-08-25T02:56:30;26.43;;;15.57;;
61135;SDS011;47021;51.340;12.432;2022-08-25T02:58:58;23.33;;;15.70;;
61135;SDS011;47021;51.340;12.432;2022-08-25T03:01:24;27.55;;;15.55;;
61135;SDS011;47021;51.340;12.432;2022-08-25T03:03:57;27.63;;;16.65;;
61135;SDS011;47021;51.340;12.432;2022-08-25T03:06:37;20.42;;;14.77;;
61135;SDS011;47021;51.340;12.432;2022-08-25T03:11:50;23.38;;;14.02;;
61135;SDS011;47021;51.340;12.432;2022-08-25T03:16:51;23.83;;;14.88;;
61135;SDS011;47021;51.340;12.432;2022-08-25T03:19:20;23.55;;;15.48;;
61135;SDS011;47021;51.340;12.432;2022-08-25T03:22:04;19.35;;;15.73;;
61135;SDS011;47021;51.340;12.432;2022-08-25T03:24:31;20.40;;;15.45;;
61135;SDS011;47021;51.340;12.432;2022-08-25T03:29:44;28.17;;;15.50;;
61135;SDS011;47021;51.340;12.432;2022-08-25T03:32:10;24.23;;;16.05;;
61135;SDS011;47021;51.340;12.432;2022-08-25T03:34:38;25.42;;;16.17;;
61135;SDS011;47021;51.340;12.432;2022-08-25T03:37:05;27.00;;;16.95;;
61135;SDS011;47021;51.340;12.432;2022-08-25T03:39:31;21.90;;;16.63;;
61135;SDS011;47021;51.340;12.432;2022-08-25T03:42:04;29.38;;;18.98;;
61135;SDS011;47021;51.340;12.432;2022-08-25T03:44:31;32.70;;;19.00;;
61135;SDS011;47021;51.340;12.432;2022-08-25T03:47:04;32.60;;;20.23;;
61135;SDS011;47021;51.340;12.432;2022-08-25T03:49:32;27.15;;;18.73;;
61135;SDS011;47021;51.340;12.432;2022-08-25T03:54:42;30.30;;;19.98;;
61135;SDS011;47021;51.340;12.432;2022-08-25T03:57:18;25.60;;;19.33;;
61135;SDS011;47021;51.340;12.432;2022-08-25T03:59:44;36.95;;;18.63;;
61135;SDS011;47021;51.340;12.432;2022-08-25T04:02:18;28.95;;;19.92;;
61135;SDS011;47021;51.340;12.432;2022-08-25T04:08:01;28.95;;;18.27;;
61135;SDS011;47021;51.340;12.432;2022-08-25T04:10:37;25.05;;;19.05;;
61135;SDS011;47021;51.340;12.432;2022-08-25T04:13:08;23.38;;;18.70;;
61135;SDS011;47021;51.340;12.432;2022-08-25T04:15:35;33.33;;;21.27;;
61135;SDS011;47021;51.340;12.432;2022-08-25T04:20:46;28.52;;;20.02;;
61135;SDS011;47021;51.340;12.432;2022-08-25T04:23:24;44.47;;;21.58;;
61135;SDS011;47021;51.340;12.432;2022-08-25T04:25:51;34.15;;;19.27;;
61135;SDS011;47021;51.340;12.432;2022-08-25T04:28:22;37.70;;;20.17;;
61135;SDS011;47021;51.340;12.432;2022-08-25T04:30:53;32.28;;;20.70;;
61135;SDS011;47021;51.340;12.432;2022-08-25T04:33:22;36.78;;;23.27;;
61135;SDS011;47021;51.340;12.432;2022-08-25T04:35:49;33.83;;;22.55;;
61135;SDS011;47021;51.340;12.432;2022-08-25T04:38:22;507.67;;;271.42;;
61135;SDS011;47021;51.340;12.432;2022-08-25T04:41:00;480.73;;;270.77;;
61135;SDS011;47021;51.340;12.432;2022-08-25T04:43:28;231.38;;;100.30;;
61135;SDS011;47021;51.340;12.432;2022-08-25T04:46:04;37.20;;;23.30;;
61135;SDS011;47021;51.340;12.432;2022-08-25T04:48:31;38.35;;;20.35;;
61135;SDS011;47021;51.340;12.432;2022-08-25T04:50:57;27.70;;;18.95;;
61135;SDS011;47021;51.340;12.432;2022-08-25T04:56:21;29.90;;;17.85;;
61135;SDS011;47021;51.340;12.432;2022-08-25T04:58:49;30.05;;;19.25;;
61135;SDS011;47021;51.340;12.432;2022-08-25T05:01:22;31.02;;;17.40;;
61135;SDS011;47021;51.340;12.432;2022-08-25T05:04:04;24.05;;;17.52;;
61135;SDS011;47021;51.340;12.432;2022-08-25T05:09:31;27.55;;;16.10;;
61135;SDS011;47021;51.340;12.432;2022-08-25T05:11:57;25.85;;;17.13;;
61135;SDS011;47021;51.340;12.432;2022-08-25T05:14:24;26.03;;;16.80;;
61135;SDS011;47021;51.340;12.432;2022-08-25T05:16:52;29.98;;;17.27;;
61135;SDS011;47021;51.340;12.432;2022-08-25T05:19:18;23.08;;;16.55;;
61135;SDS011;47021;51.340;12.432;2022-08-25T05:21:46;30.83;;;17.55;;
61135;SDS011;47021;51.340;12.432;2022-08-25T05:24:11;22.60;;;18.33;;
61135;SDS011;47021;51.340;12.432;2022-08-25T05:29:13;29.50;;;17.80;;
61135;SDS011;47021;51.340;12.432;2022-08-25T05:31:46;29.40;;;18.85;;
61135;SDS011;47021;51.340;12.432;2022-08-25T05:34:19;28.15;;;18.27;;
61135;SDS011;47021;51.340;12.432;2022-08-25T05:36:58;30.25;;;17.65;;
61135;SDS011;47021;51.340;12.432;2022-08-25T05:39:23;37.85;;;19.35;;
61135;SDS011;47021;51.340;12.432;2022-08-25T05:42:04;30.80;;;17.67;;
61135;SDS011;47021;51.340;12.432;2022-08-25T05:44:29;31.35;;;17.90;;
61135;SDS011;47021;51.340;12.432;2022-08-25T05:46:56;31.40;;;17.88;;
61135;SDS011;47021;51.340;12.432;2022-08-25T05:49:22;27.67;;;16.85;;
61135;SDS011;47021;51.340;12.432;2022-08-25T05:51:54;22.83;;;17.70;;
61135;SDS011;47021;51.340;12.432;2022-08-25T05:54:20;32.42;;;18.15;;
61135;SDS011;47021;51.340;12.432;2022-08-25T05:56:51;57.20;;;19.60;;
61135;SDS011;47021;51.340;12.432;2022-08-25T05:59:23;28.02;;;16.45;;
61135;SDS011;47021;51.340;12.432;2022-08-25T06:01:48;32.45;;;18.15;;
61135;SDS011;47021;51.340;12.432;2022-08-25T06:04:20;35.72;;;18.75;;
61135;SDS011;47021;51.340;12.432;2022-08-25T06:06:47;23.33;;;17.38;;
61135;SDS011;47021;51.340;12.432;2022-08-25T06:09:18;28.35;;;17.00;;
61135;SDS011;47021;51.340;12.432;2022-08-25T06:11:51;26.20;;;16.98;;
61135;SDS011;47021;51.340;12.432;2022-08-25T06:14:17;23.95;;;16.67;;
61135;SDS011;47021;51.340;12.432;2022-08-25T06:16:50;32.70;;;17.20;;
61135;SDS011;47021;51.340;12.432;2022-08-25T06:19:18;36.42;;;17.08;;
61135;SDS011;47021;51.340;12.432;2022-08-25T06:21:44;22.45;;;15.68;;
61135;SDS011;47021;51.340;12.432;2022-08-25T06:24:16;26.13;;;15.63;;
61135;SDS011;47021;51.340;12.432;2022-08-25T06:26:41;25.42;;;16.80;;
61135;SDS011;47021;51.340;12.432;2022-08-25T06:29:13;25.88;;;16.20;;
61135;SDS011;47021;51.340;12.432;2022-08-25T06:34:41;35.42;;;15.20;;
61135;SDS011;47021;51.340;12.432;2022-08-25T06:37:07;31.42;;;15.23;;
61135;SDS011;47021;51.340;12.432;2022-08-25T06:39:32;28.85;;;14.38;;
61135;SDS011;47021;51.340;12.432;2022-08-25T06:42:04;23.00;;;15.52;;
61135;SDS011;47021;51.340;12.432;2022-08-25T06:44:30;29.15;;;16.38;;
61135;SDS011;47021;51.340;12.432;2022-08-25T06:47:09;29.73;;;15.65;;
61135;SDS011;47021;51.340;12.432;2022-08-25T06:49:35;20.85;;;14.80;;
61135;SDS011;47021;51.340;12.432;2022-08-25T06:52:03;26.83;;;15.40;;
61135;SDS011;47021;51.340;12.432;2022-08-25T06:54:31;24.38;;;14.52;;
61135;SDS011;47021;51.340;12.432;2022-08-25T06:57:02;23.55;;;14.65;;
61135;SDS011;47021;51.340;12.432;2022-08-25T06:59:29;29.23;;;16.23;;
61135;SDS011;47021;51.340;12.432;2022-08-25T07:01:55;20.25;;;15.20;;
61135;SDS011;47021;51.340;12.432;2022-08-25T07:07:13;26.17;;;15.05;;
61135;SDS011;47021;51.340;12.432;2022-08-25T07:09:41;34.20;;;16.33;;
61135;SDS011;47021;51.340;12.432;2022-08-25T07:12:09;38.65;;;16.92;;
61135;SDS011;47021;51.340;12.432;2022-08-25T07:14:36;53.45;;;15.43;;
61135;SDS011;47021;51.340;12.432;2022-08-25T07:17:07;27.27;;;14.38;;
61135;SDS011;47021;51.340;12.432;2022-08-25T07:19:39;29.10;;;14.15;;
61135;SDS011;47021;51.340;12.432;2022-08-25T07:22:18;22.27;;;14.38;;
61135;SDS011;47021;51.340;12.432;2022-08-25T07:24:44;18.88;;;13.55;;
61135;SDS011;47021;51.340;12.432;2022-08-25T07:29:49;35.53;;;15.15;;
61135;SDS011;47021;51.340;12.432;2022-08-25T07:32:16;25.05;;;14.80;;
61135;SDS011;47021;51.340;12.432;2022-08-25T07:34:44;28.90;;;13.90;;
61135;SDS011;47021;51.340;12.432;2022-08-25T07:37:09;25.30;;;15.75;;
61135;SDS011;47021;51.340;12.432;2022-08-25T07:39:40;31.15;;;13.30;;
61135;SDS011;47021;51.340;12.432;2022-08-25T07:42:07;18.25;;;12.30;;
61135;SDS011;47021;51.340;12.432;2022-08-25T07:44:39;24.92;;;12.05;;
61135;SDS011;47021;51.340;12.432;2022-08-25T07:47:06;21.80;;;10.60;;
61135;SDS011;47021;51.340;12.432;2022-08-25T07:49:32;20.55;;;11.70;;
61135;SDS011;47021;51.340;12.432;2022-08-25T07:51:59;16.60;;;9.70;;
61135;SDS011;47021;51.340;12.432;2022-08-25T07:54:24;15.73;;;10.20;;
61135;SDS011;47021;51.340;12.432;2022-08-25T07:56:51;23.63;;;10.37;;
61135;SDS011;47021;51.340;12.432;2022-08-25T07:59:31;13.85;;;8.88;;
61135;SDS011;47021;51.340;12.432;2022-08-25T08:02:00;18.88;;;10.00;;
61135;SDS011;47021;51.340;12.432;2022-08-25T08:04:28;27.75;;;10.13;;
61135;SDS011;47021;51.340;12.432;2022-08-25T08:06:59;22.30;;;9.18;;
61135;SDS011;47021;51.340;12.432;2022-08-25T08:12:39;19.07;;;8.83;;
61135;SDS011;47021;51.340;12.432;2022-08-25T08:18:15;24.55;;;9.27;;
61135;SDS011;47021;51.340;12.432;2022-08-25T08:23:40;14.88;;;8.48;;
61135;SDS011;47021;51.340;12.432;2022-08-25T08:28:35;17.63;;;8.45;;
61135;SDS011;47021;51.340;12.432;2022-08-25T08:31:00;17.73;;;9.60;;
61135;SDS011;47021;51.340;12.432;2022-08-25T08:36:14;17.48;;;8.73;;
61135;SDS011;47021;51.340;12.432;2022-08-25T08:44:25;28.50;;;9.73;;
61135;SDS011;47021;51.340;12.432;2022-08-25T08:47:10;15.40;;;9.23;;
61135;SDS011;47021;51.340;12.432;2022-08-25T08:52:43;26.20;;;9.32;;
61135;SDS011;47021;51.340;12.432;2022-08-25T08:55:20;23.27;;;8.80;;
61135;SDS011;47021;51.340;12.432;2022-08-25T08:58:02;17.92;;;9.07;;
61135;SDS011;47021;51.340;12.432;2022-08-25T09:18:11;32.97;;;8.25;;
61135;SDS011;47021;51.340;12.432;2022-08-25T09:26:38;20.42;;;8.05;;
61135;SDS011;47021;51.340;12.432;2022-08-25T09:29:23;14.50;;;7.32;;
61135;SDS011;47021;51.340;12.432;2022-08-25T09:31:55;20.77;;;8.10;;
61135;SDS011;47021;51.340;12.432;2022-08-25T09:34:27;26.38;;;8.23;;
61135;SDS011;47021;51.340;12.432;2022-08-25T09:36:56;23.23;;;8.27;;
61135;SDS011;47021;51.340;12.432;2022-08-25T09:39:23;17.23;;;8.40;;
61135;SDS011;47021;51.340;12.432;2022-08-25T09:41:56;25.10;;;8.25;;
61135;SDS011;47021;51.340;12.432;2022-08-25T09:44:26;26.50;;;8.13;;
61135;SDS011;47021;51.340;12.432;2022-08-25T09:49:47;26.52;;;8.25;;
61135;SDS011;47021;51.340;12.432;2022-08-25T09:57:46;23.93;;;7.37;;
61135;SDS011;47021;51.340;12.432;2022-08-25T10:00:23;43.55;;;7.85;;
61135;SDS011;47021;51.340;12.432;2022-08-25T10:05:32;16.30;;;6.82;;
61135;SDS011;47021;51.340;12.432;2022-08-25T10:08:03;26.10;;;7.05;;
61135;SDS011;47021;51.340;12.432;2022-08-25T10:10:45;36.25;;;8.05;;
61135;SDS011;47021;51.340;12.432;2022-08-25T10:13:34;22.35;;;7.20;;
61135;SDS011;47021;51.340;12.432;2022-08-25T10:24:51;15.60;;;7.30;;
61135;SDS011;47021;51.340;12.432;2022-08-25T10:30:24;22.38;;;7.05;;
61135;SDS011;47021;51.340;12.432;2022-08-25T10:38:51;22.80;;;8.57;;
61135;SDS011;47021;51.340;12.432;2022-08-25T10:41:33;21.25;;;7.00;;
61135;SDS011;47021;51.340;12.432;2022-08-25T10:44:23;20.75;;;7.80;;
61135;SDS011;47021;51.340;12.432;2022-08-25T10:56:23;29.00;;;7.47;;
61135;SDS011;47021;51.340;12.432;2022-08-25T11:06:56;50.47;;;25.53;;
61135;SDS011;47021;51.340;12.432;2022-08-25T11:09:31;44.20;;;9.95;;
61135;SDS011;47021;51.340;12.432;2022-08-25T11:12:07;35.92;;;8.38;;
61135;SDS011;47021;51.340;12.432;2022-08-25T11:14:45;33.42;;;8.15;;
61135;SDS011;47021;51.340;12.432;2022-08-25T11:17:19;29.52;;;7.55;;
61135;SDS011;47021;51.340;12.432;2022-08-25T11:19:52;25.25;;;7.43;;
61135;SDS011;47021;51.340;12.432;2022-08-25T11:25:50;33.80;;;7.35;;
61135;SDS011;47021;51.340;12.432;2022-08-25T11:28:25;23.42;;;7.47;;
61135;SDS011;47021;51.340;12.432;2022-08-25T11:31:09;36.50;;;7.88;;
61135;SDS011;47021;51.340;12.432;2022-08-25T11:52:01;39.20;;;8.40;;
61135;SDS011;47021;51.340;12.432;2022-08-25T11:58:20;31.17;;;7.43;;
61135;SDS011;47021;51.340;12.432;2022-08-25T12:01:02;29.58;;;8.15;;
61135;SDS011;47021;51.340;12.432;2022-08-25T12:06:21;38.67;;;8.23;;
61135;SDS011;47021;51.340;12.432;2022-08-25T12:27:19;17.50;;;6.22;;
61135;SDS011;47021;51.340;12.432;2022-08-25T12:35:59;26.95;;;7.32;;
61135;SDS011;47021;51.340;12.432;2022-08-25T12:38:33;25.15;;;5.55;;
61135;SDS011;47021;51.340;12.432;2022-08-25T12:41:27;25.98;;;6.57;;
61135;SDS011;47021;51.340;12.432;2022-08-25T12:43:53;26.67;;;6.82;;
61135;SDS011;47021;51.340;12.432;2022-08-25T12:46:42;34.65;;;7.53;;
61135;SDS011;47021;51.340;12.432;2022-08-25T12:52:04;24.50;;;6.70;;
61135;SDS011;47021;51.340;12.432;2022-08-25T13:00:14;25.70;;;6.50;;
61135;SDS011;47021;51.340;12.432;2022-08-25T13:05:40;34.08;;;6.60;;
61135;SDS011;47021;51.340;12.432;2022-08-25T13:16:55;40.55;;;6.75;;
61135;SDS011;47021;51.340;12.432;2022-08-25T13:19:28;31.65;;;6.80;;
61135;SDS011;47021;51.340;12.432;2022-08-25T13:21:54;34.90;;;6.82;;
61135;SDS011;47021;51.340;12.432;2022-08-25T13:26:53;26.13;;;6.30;;
61135;SDS011;47021;51.340;12.432;2022-08-25T13:29:33;29.15;;;6.60;;
61135;SDS011;47021;51.340;12.432;2022-08-25T13:32:03;62.58;;;8.40;;
61135;SDS011;47021;51.340;12.432;2022-08-25T13:34:33;28.35;;;6.55;;
61135;SDS011;47021;51.340;12.432;2022-08-25T13:37:18;31.70;;;6.38;;
61135;SDS011;47021;51.340;12.432;2022-08-25T13:39:49;156.25;;;15.98;;
61135;SDS011;47021;51.340;12.432;2022-08-25T13:42:15;69.05;;;7.40;;
61135;SDS011;47021;51.340;12.432;2022-08-25T13:44:43;34.33;;;7.88;;
61135;SDS011;47021;51.340;12.432;2022-08-25T13:47:11;31.05;;;6.68;;
61135;SDS011;47021;51.340;12.432;2022-08-25T13:49:41;38.33;;;7.05;;
61135;SDS011;47021;51.340;12.432;2022-08-25T13:52:14;40.35;;;6.40;;
61135;SDS011;47021;51.340;12.432;2022-08-25T13:54:50;32.20;;;6.72;;
61135;SDS011;47021;51.340;12.432;2022-08-25T13:57:29;29.92;;;6.03;;
61135;SDS011;47021;51.340;12.432;2022-08-25T14:00:00;27.88;;;6.82;;
61135;SDS011;47021;51.340;12.432;2022-08-25T14:08:00;39.47;;;6.80;;
61135;SDS011;47021;51.340;12.432;2022-08-25T14:10:40;50.55;;;7.55;;
61135;SDS011;47021;51.340;12.432;2022-08-25T14:15:51;28.02;;;6.30;;
61135;SDS011;47021;51.340;12.432;2022-08-25T14:18:19;27.48;;;6.75;;
61135;SDS011;47021;51.340;12.432;2022-08-25T14:20:51;34.97;;;7.32;;
61135;SDS011;47021;51.340;12.432;2022-08-25T14:23:19;30.48;;;6.57;;
61135;SDS011;47021;51.340;12.432;2022-08-25T14:25:48;35.03;;;7.03;;
61135;SDS011;47021;51.340;12.432;2022-08-25T14:28:24;33.85;;;6.20;;
61135;SDS011;47021;51.340;12.432;2022-08-25T14:33:54;28.92;;;6.88;;
61135;SDS011;47021;51.340;12.432;2022-08-25T14:36:29;22.95;;;6.10;;
61135;SDS011;47021;51.340;12.432;2022-08-25T14:38:56;28.88;;;6.75;;
61135;SDS011;47021;51.340;12.432;2022-08-25T14:41:23;44.22;;;7.72;;
61135;SDS011;47021;51.340;12.432;2022-08-25T14:43:50;25.38;;;5.90;;
61135;SDS011;47021;51.340;12.432;2022-08-25T14:46:20;36.90;;;6.47;;
